This is the latest recevied weather packets stored in our database for station/object VK2OB. If no packets are shown the sender has not sent any weather packets the latest 10 day(s).
| Time | Temp. | Humidity | Pressure | Rain* | Wind** | Luminosity | Snow |
|---|---|---|---|---|---|---|---|
| 1778036795 | 22.22° C | 62% | 1017.6 hPa | 0 mm | - | - | - |
| 1778036496 | 22.22° C | 61% | 1017.6 hPa | 0 mm | - | - | - |
| 1778036197 | 22.22° C | 60% | 1017.7 hPa | 0 mm | - | - | - |
| 1778035898 | 22.22° C | 60% | 1017.7 hPa | 0 mm | - | - | - |
| 1778035598 | 22.22° C | 60% | 1017.7 hPa | 0 mm | - | - | - |
| 1778035300 | 22.22° C | 59% | 1017.7 hPa | 0 mm | - | - | - |
| 1778035001 | 22.78° C | 58% | 1017.9 hPa | 0 mm | - | - | - |
| 1778034702 | 22.78° C | 57% | 1017.9 hPa | 0 mm | - | - | - |
| 1778034403 | 23.33° C | 56% | 1018 hPa | 0 mm | - | - | - |
| 1778034104 | 23.33° C | 55% | 1018.1 hPa | 0 mm | - | - | - |
| 1778033804 | 23.89° C | 54% | 1018.2 hPa | 0 mm | - | - | - |
| 1778033505 | 23.89° C | 52% | 1018.4 hPa | 0 mm | - | - | - |
| 1778033207 | 24.44° C | 52% | 1018.4 hPa | 0 mm | - | - | - |
| 1778032908 | 23.89° C | 53% | 1018.5 hPa | 0 mm | - | - | - |
| 1778032609 | 23.89° C | 52% | 1018.6 hPa | 0 mm | - | - | - |
| 1778032011 | 25° C | 49% | 1018.8 hPa | 0 mm | - | - | - |
| 1778031413 | 25.56° C | 48% | 1019 hPa | 0 mm | - | - | - |
| 1778031114 | 25.56° C | 49% | 1019 hPa | 0 mm | - | - | - |
| 1778030217 | 24.44° C | 52% | 1019.3 hPa | 0 mm | - | - | - |
| 1778029619 | 24.44° C | 49% | 1019.5 hPa | 0 mm | - | - | - |
| 1778029320 | 24.44° C | 49% | 1019.6 hPa | 0 mm | - | - | - |
| 1778029021 | 24.44° C | 51% | 1019.7 hPa | 0 mm | - | - | - |
| 1778028423 | 22.78° C | 54% | 1019.7 hPa | 0 mm | - | - | - |
| 1778027825 | 21.67° C | 55% | 1019.8 hPa | 0 mm | - | - | - |
| 1778027227 | 22.22° C | 52% | 1019.9 hPa | 0 mm | - | - | - |
* Rain latest hour (hover to see other rain measurements)
** Current wind speed in m/s (hover to see current wind gust speed)